ΕΜΥ, Εθνική Μετεωρολογική Υπηρεσία - Δελτία Καιρού, Προγνώσεις

ΑΕΡΟΝΑΥΤΙΛΙΑ

GREEK AIRPORTS CODES

LGKY 220900Z 13012G22KT 9999 SCT018 17/14 Q1016 RMK BKN200 HAND WIND ANEMOMETER OBSERVATION=

EUROPEAN AIRPORTS CODES

LFPO 221130Z 36009KT 320V040 9999 FEW051TCU BKN051 11/00Q1024 TEMPO 4000 -SHRA SCT030TCU=